Time;durP1;ratioP1;P1;durP2;ratioP2;P2;SDS_P1;SDS_P2;PMS_P1;PMS_P2;Temp;Humidity;BMP_temperature;BMP_pressure;BME280_temperature;BME280_humidity;BME280_pressure;Samples;Min_cycle;Max_cycle;Signal;HPM_P1;HPM_P2
2023/12/14 00:00:20;;;;;;;4.53;1.60;;;7.60;99.90;;;;;;5131408;28;20040;-77
2023/12/14 00:02:45;;;;;;;5.93;1.38;;;7.70;99.90;;;;;;5130123;28;20038;-77
2023/12/14 00:05:11;;;;;;;4.70;1.60;;;7.70;99.90;;;;;;5130993;28;20050;-77
2023/12/14 00:07:37;;;;;;;7.68;1.50;;;7.70;99.90;;;;;;5130898;28;20023;-78
2023/12/14 00:10:04;;;;;;;6.53;1.90;;;7.70;99.90;;;;;;5130370;28;20444;-77
2023/12/14 00:12:30;;;;;;;5.10;1.55;;;7.70;99.90;;;;;;5130817;28;20264;-77
2023/12/14 00:14:56;;;;;;;7.47;2.20;;;7.70;99.90;;;;;;5130237;28;20103;-78
2023/12/14 00:17:22;;;;;;;6.57;2.22;;;7.70;99.90;;;;;;5131689;28;20080;-79
2023/12/14 00:19:47;;;;;;;7.32;2.42;;;7.70;99.90;;;;;;5112462;28;20403;-79
2023/12/14 00:22:13;;;;;;;6.50;1.90;;;7.70;99.90;;;;;;5131525;28;20035;-79
2023/12/14 00:24:39;;;;;;;5.47;2.00;;;7.70;99.90;;;;;;5130917;28;20084;-79
2023/12/14 00:27:04;;;;;;;4.07;1.63;;;7.70;99.90;;;;;;5131196;28;20015;-79
2023/12/14 00:29:30;;;;;;;5.82;1.90;;;7.80;99.90;;;;;;5131337;28;20043;-79
2023/12/14 00:31:56;;;;;;;4.75;1.83;;;7.80;99.90;;;;;;5130828;28;20037;-79
2023/12/14 00:34:22;;;;;;;6.80;2.55;;;7.80;99.90;;;;;;5133727;27;20027;-79
2023/12/14 00:36:47;;;;;;;5.57;2.47;;;7.80;99.90;;;;;;5135081;27;20034;-79
2023/12/14 00:39:13;;;;;;;5.70;1.95;;;7.80;99.90;;;;;;5135069;27;20031;-79
2023/12/14 00:41:39;;;;;;;8.25;3.20;;;7.90;99.90;;;;;;5135027;27;20058;-79
2023/12/14 00:44:04;;;;;;;8.65;2.50;;;7.90;99.90;;;;;;5134055;27;20076;-79
2023/12/14 00:46:30;;;;;;;6.05;2.65;;;7.90;99.90;;;;;;5114524;28;20027;-78
2023/12/14 00:48:56;;;;;;;8.23;2.22;;;7.90;99.90;;;;;;5113596;28;20208;-79
2023/12/14 00:51:21;;;;;;;6.88;1.85;;;8.00;99.90;;;;;;5114005;28;20031;-79
2023/12/14 00:53:47;;;;;;;3.17;1.58;;;8.00;99.90;;;;;;5113615;28;20475;-79
2023/12/14 00:56:13;;;;;;;8.52;1.65;;;8.00;99.90;;;;;;5113700;28;20392;-79
2023/12/14 00:58:39;;;;;;;2.50;1.52;;;8.10;99.90;;;;;;5114166;28;20040;-79
2023/12/14 01:01:04;;;;;;;5.68;1.75;;;8.10;99.90;;;;;;5113063;28;20024;-79
2023/12/14 01:03:30;;;;;;;5.63;1.70;;;8.10;99.90;;;;;;5113637;28;20466;-80
2023/12/14 01:05:56;;;;;;;5.47;1.90;;;8.10;99.90;;;;;;5113281;28;20020;-80
2023/12/14 01:08:22;;;;;;;5.43;1.48;;;8.10;99.90;;;;;;5113737;28;20106;-79
2023/12/14 01:10:47;;;;;;;5.15;1.40;;;8.20;99.90;;;;;;5094714;28;20376;-79
2023/12/14 01:13:13;;;;;;;2.55;1.40;;;8.30;99.90;;;;;;5114843;28;20028;-77
2023/12/14 01:15:39;;;;;;;5.88;1.75;;;8.40;99.90;;;;;;5095572;28;20032;-78
2023/12/14 01:18:05;;;;;;;2.75;1.60;;;8.50;99.90;;;;;;5095053;28;20171;-77
2023/12/14 01:20:31;;;;;;;4.10;1.85;;;8.50;99.90;;;;;;5113711;28;20057;-78
2023/12/14 01:22:56;;;;;;;3.58;2.15;;;8.50;99.90;;;;;;5113282;28;20143;-78
2023/12/14 01:25:22;;;;;;;3.53;1.50;;;8.50;99.90;;;;;;5113021;28;20417;-78
2023/12/14 01:27:48;;;;;;;5.15;1.65;;;8.50;99.90;;;;;;5094558;28;20443;-78
2023/12/14 01:30:13;;;;;;;7.05;2.05;;;8.40;99.90;;;;;;5113370;28;20031;-78
2023/12/14 01:32:39;;;;;;;4.38;2.00;;;8.50;99.90;;;;;;5113334;28;20461;-77
2023/12/14 01:35:05;;;;;;;5.25;1.83;;;8.40;99.90;;;;;;5112997;28;20460;-78
2023/12/14 01:37:31;;;;;;;7.22;2.40;;;8.50;99.90;;;;;;5112874;28;20028;-78
2023/12/14 01:39:57;;;;;;;4.45;2.05;;;8.50;99.90;;;;;;5112887;28;20039;-78
2023/12/14 01:42:22;;;;;;;7.32;2.00;;;8.50;99.90;;;;;;5113394;28;20144;-79
2023/12/14 01:44:48;;;;;;;3.50;1.83;;;8.40;99.90;;;;;;5112001;28;20031;-78
2023/12/14 01:47:14;;;;;;;2.83;1.70;;;8.50;99.90;;;;;;5094607;28;20076;-78
2023/12/14 01:49:41;;;;;;;10.52;2.10;;;8.40;99.90;;;;;;5113015;28;20118;-79
2023/12/14 01:52:07;;;;;;;3.83;1.80;;;8.40;99.90;;;;;;5111895;28;20042;-78
2023/12/14 01:54:33;;;;;;;3.03;1.70;;;8.40;99.90;;;;;;5113015;28;20371;-78
2023/12/14 01:56:59;;;;;;;3.88;1.33;;;8.40;99.90;;;;;;5112274;28;20020;-78
2023/12/14 01:59:25;;;;;;;6.88;2.22;;;8.40;99.90;;;;;;5094423;28;20069;-77
2023/12/14 02:01:56;;;;;;;2.22;1.42;;;8.50;99.90;;;;;;5111908;28;20468;-78
2023/12/14 02:04:23;;;;;;;2.45;1.52;;;8.50;99.90;;;;;;5112507;28;20376;-78
2023/12/14 02:06:49;;;;;;;4.38;1.65;;;8.40;99.90;;;;;;5111960;28;20051;-78
2023/12/14 02:09:14;;;;;;;3.90;1.83;;;8.50;99.90;;;;;;5112541;28;20167;-78
2023/12/14 02:11:40;;;;;;;4.00;1.85;;;8.40;99.90;;;;;;5094233;28;20031;-78
2023/12/14 02:14:08;;;;;;;1.83;1.38;;;8.40;99.90;;;;;;5112135;28;20043;-78
2023/12/14 02:16:34;;;;;;;3.00;1.50;;;8.40;99.90;;;;;;5112045;28;20020;-78
2023/12/14 02:18:59;;;;;;;2.20;1.70;;;8.40;99.90;;;;;;5093591;28;20028;-78
2023/12/14 02:21:25;;;;;;;7.22;2.00;;;8.50;99.90;;;;;;5112162;28;20377;-78
2023/12/14 02:23:51;;;;;;;5.95;1.40;;;8.50;99.90;;;;;;5111591;28;20072;-78
2023/12/14 02:26:17;;;;;;;3.47;2.03;;;8.50;99.90;;;;;;5111930;28;20019;-79
2023/12/14 02:28:42;;;;;;;2.40;1.70;;;8.50;99.90;;;;;;5111539;28;20035;-79
2023/12/14 02:31:08;;;;;;;4.28;1.90;;;8.50;99.90;;;;;;5110833;28;20031;-78
2023/12/14 02:33:34;;;;;;;3.25;1.55;;;8.50;99.90;;;;;;5111536;28;20019;-79
2023/12/14 02:36:00;;;;;;;4.03;2.03;;;8.50;99.90;;;;;;5111621;28;20099;-79
2023/12/14 02:38:26;;;;;;;5.55;2.10;;;8.50;99.90;;;;;;5111455;28;20024;-79
2023/12/14 02:40:52;;;;;;;5.95;2.40;;;8.50;99.90;;;;;;5110983;28;20026;-79
2023/12/14 02:43:21;;;;;;;5.22;2.47;;;8.50;99.90;;;;;;5111798;28;20096;-79
2023/12/14 02:45:46;;;;;;;6.75;2.00;;;8.50;99.90;;;;;;5111521;28;20072;-80
2023/12/14 02:48:12;;;;;;;8.57;2.35;;;8.60;99.90;;;;;;5111139;28;20031;-78
2023/12/14 02:50:38;;;;;;;6.22;2.40;;;8.60;99.90;;;;;;5111412;28;20039;-78
2023/12/14 02:53:04;;;;;;;7.20;2.67;;;8.60;99.90;;;;;;5110827;28;20106;-79
2023/12/14 02:55:29;;;;;;;6.00;2.50;;;8.60;99.90;;;;;;5111748;28;20063;-78
2023/12/14 02:57:55;;;;;;;9.38;2.60;;;8.60;99.90;;;;;;5110131;28;20469;-80
2023/12/14 03:00:21;;;;;;;12.27;2.50;;;8.60;99.90;;;;;;5111454;28;20071;-79
2023/12/14 03:02:47;;;;;;;11.57;3.15;;;8.70;99.90;;;;;;5110872;28;20389;-79
2023/12/14 03:05:12;;;;;;;7.38;2.47;;;8.70;99.90;;;;;;5110737;28;20062;-79
2023/12/14 03:07:38;;;;;;;13.27;3.05;;;8.80;99.90;;;;;;5110689;28;20391;-79
2023/12/14 03:10:05;;;;;;;10.10;2.97;;;8.80;99.90;;;;;;5110561;28;20072;-79
2023/12/14 03:12:30;;;;;;;7.68;2.55;;;8.90;99.90;;;;;;5110676;28;20032;-78
2023/12/14 03:14:56;;;;;;;11.45;3.25;;;8.90;99.90;;;;;;5110144;28;20023;-78
2023/12/14 03:17:22;;;;;;;15.15;2.92;;;8.90;99.90;;;;;;5110879;28;20023;-78
2023/12/14 03:19:47;;;;;;;9.25;2.95;;;8.90;99.90;;;;;;5111030;28;20031;-80
2023/12/14 03:22:13;;;;;;;8.77;2.88;;;8.90;99.90;;;;;;5110170;28;20434;-78
2023/12/14 03:24:39;;;;;;;9.50;2.65;;;9.00;99.90;;;;;;5110955;28;20046;-79
2023/12/14 03:27:05;;;;;;;11.98;2.97;;;8.90;99.90;;;;;;5112057;28;20027;-78
2023/12/14 03:29:31;;;;;;;12.70;3.17;;;8.90;99.90;;;;;;5112524;28;20069;-77
2023/12/14 03:31:57;;;;;;;14.40;2.63;;;8.90;99.90;;;;;;5130613;28;20039;-80
2023/12/14 03:34:24;;;;;;;8.70;3.20;;;8.90;99.90;;;;;;5131365;28;20098;-79
2023/12/14 03:36:50;;;;;;;9.93;2.95;;;8.90;99.90;;;;;;5131164;28;20106;-79
2023/12/14 03:39:18;;;;;;;9.65;2.83;;;8.90;99.90;;;;;;5131493;28;20077;-80
2023/12/14 03:41:44;;;;;;;7.75;2.55;;;8.80;99.90;;;;;;5131040;28;20035;-80
2023/12/14 03:44:10;;;;;;;7.40;2.53;;;8.80;99.90;;;;;;5130484;28;20031;-79
2023/12/14 03:46:36;;;;;;;7.53;2.42;;;8.80;99.90;;;;;;5131585;28;20098;-79
2023/12/14 03:49:03;;;;;;;5.25;2.50;;;8.70;99.90;;;;;;5131041;28;20118;-79
2023/12/14 03:51:29;;;;;;;6.80;2.20;;;8.80;99.90;;;;;;5113078;28;20402;-79
2023/12/14 03:53:54;;;;;;;6.82;2.60;;;8.70;99.90;;;;;;5130463;28;20072;-80
2023/12/14 03:56:20;;;;;;;6.68;2.58;;;8.60;99.90;;;;;;5132505;28;20055;-79
2023/12/14 03:58:46;;;;;;;6.00;2.33;;;8.60;99.90;;;;;;5131255;28;20448;-79
2023/12/14 04:01:18;;;;;;;6.45;2.42;;;8.60;99.90;;;;;;5130659;28;20030;-79
2023/12/14 04:03:45;;;;;;;6.43;2.70;;;8.50;99.90;;;;;;5131088;28;20023;-79
2023/12/14 04:06:11;;;;;;;4.18;2.13;;;8.50;99.90;;;;;;5130633;28;20083;-79
2023/12/14 04:08:39;;;;;;;3.25;1.92;;;8.60;99.90;;;;;;5131926;27;20372;-79
2023/12/14 04:11:05;;;;;;;4.68;2.33;;;8.60;99.90;;;;;;5134537;27;20081;-79
2023/12/14 04:13:31;;;;;;;5.68;2.75;;;8.60;99.90;;;;;;5135318;27;20059;-79
2023/12/14 04:15:57;;;;;;;6.07;2.45;;;8.70;99.90;;;;;;5116002;27;20028;-79
2023/12/14 04:18:23;;;;;;;5.78;2.38;;;8.60;99.90;;;;;;5135188;27;20399;-79
2023/12/14 04:20:49;;;;;;;4.40;2.20;;;8.70;99.90;;;;;;5135101;27;20099;-78
2023/12/14 04:23:14;;;;;;;4.05;2.30;;;8.70;99.90;;;;;;5134435;27;20093;-78
2023/12/14 04:25:40;;;;;;;2.60;2.40;;;8.70;99.90;;;;;;5134749;27;20031;-78
2023/12/14 04:28:06;;;;;;;2.95;2.25;;;8.70;99.90;;;;;;5134342;27;20023;-79
2023/12/14 04:30:32;;;;;;;3.35;2.33;;;8.70;99.90;;;;;;5116582;27;20421;-79
2023/12/14 04:32:58;;;;;;;4.25;2.30;;;8.80;99.90;;;;;;5134401;27;20349;-79
2023/12/14 04:35:23;;;;;;;3.13;2.67;;;8.80;99.90;;;;;;5116838;27;20031;-77
2023/12/14 04:37:49;;;;;;;6.18;2.70;;;8.80;99.90;;;;;;5134347;27;20034;-78
2023/12/14 04:40:15;;;;;;;7.05;2.55;;;8.70;99.90;;;;;;5133942;27;20552;-79
2023/12/14 04:42:41;;;;;;;3.30;2.20;;;8.80;99.90;;;;;;5134659;27;20035;-78
2023/12/14 04:45:08;;;;;;;6.43;2.50;;;8.70;99.90;;;;;;5133641;27;20043;-78
2023/12/14 04:47:35;;;;;;;2.97;2.17;;;8.70;99.90;;;;;;5134553;27;20053;-78
2023/12/14 04:50:02;;;;;;;5.03;2.30;;;8.70;99.90;;;;;;5133624;27;20027;-78
2023/12/14 04:52:28;;;;;;;4.07;2.00;;;8.80;99.90;;;;;;5134336;27;20053;-78
2023/12/14 04:54:53;;;;;;;7.13;2.50;;;8.80;99.90;;;;;;5133896;27;20027;-78
2023/12/14 04:57:19;;;;;;;2.67;2.10;;;8.80;99.90;;;;;;5115477;27;20105;-78
2023/12/14 04:59:45;;;;;;;3.47;2.28;;;8.80;99.90;;;;;;5134655;27;20059;-79
2023/12/14 05:02:10;;;;;;;6.55;2.22;;;8.90;99.90;;;;;;5133615;27;20107;-78
2023/12/14 05:04:36;;;;;;;5.05;1.90;;;8.90;99.90;;;;;;5133897;27;20029;-78
2023/12/14 05:07:02;;;;;;;5.93;2.63;;;9.00;99.90;;;;;;5133555;27;20455;-78
2023/12/14 05:09:28;;;;;;;7.25;2.72;;;9.10;99.90;;;;;;5133694;27;20027;-78
2023/12/14 05:11:54;;;;;;;7.60;2.50;;;9.10;99.90;;;;;;5133880;27;20489;-78
2023/12/14 05:14:20;;;;;;;6.78;2.55;;;9.10;99.90;;;;;;5133425;27;20102;-78
2023/12/14 05:16:45;;;;;;;8.73;2.88;;;9.10;99.90;;;;;;5134203;27;20038;-78
2023/12/14 05:19:12;;;;;;;8.27;2.35;;;9.20;99.90;;;;;;5114391;27;20031;-78
2023/12/14 05:21:38;;;;;;;7.40;2.30;;;9.20;99.90;;;;;;5114325;27;20019;-79
2023/12/14 05:24:04;;;;;;;9.60;2.20;;;9.10;99.90;;;;;;5133452;27;20027;-79
2023/12/14 05:26:30;;;;;;;8.60;2.45;;;9.20;99.90;;;;;;5134210;27;20051;-79
2023/12/14 05:28:55;;;;;;;8.32;2.97;;;9.20;99.90;;;;;;5134043;27;20066;-79
2023/12/14 05:31:21;;;;;;;7.20;2.50;;;9.10;99.90;;;;;;5133729;27;20027;-78
2023/12/14 05:33:47;;;;;;;6.72;2.65;;;9.00;99.90;;;;;;5133599;27;20037;-79
2023/12/14 05:36:14;;;;;;;12.20;2.78;;;9.10;99.90;;;;;;5133453;27;20148;-78
2023/12/14 05:38:41;;;;;;;8.25;2.30;;;9.10;99.90;;;;;;5133116;27;20058;-79
2023/12/14 05:41:07;;;;;;;16.92;3.13;;;9.20;99.90;;;;;;5114349;27;20367;-79
2023/12/14 05:43:33;;;;;;;9.15;2.53;;;9.20;99.90;;;;;;5133635;27;20027;-78
2023/12/14 05:45:59;;;;;;;9.82;2.33;;;9.30;99.90;;;;;;5133144;27;20019;-78
2023/12/14 05:48:26;;;;;;;6.85;2.28;;;9.20;99.90;;;;;;5132861;27;20035;-78
2023/12/14 05:50:52;;;;;;;9.98;3.22;;;9.20;99.90;;;;;;5133408;27;20023;-78
2023/12/14 05:53:19;;;;;;;10.75;2.78;;;9.30;99.90;;;;;;5132964;27;20068;-78
2023/12/14 05:55:45;;;;;;;11.73;3.05;;;9.30;99.90;;;;;;5133033;27;20027;-78
2023/12/14 05:58:10;;;;;;;13.35;2.92;;;9.20;99.90;;;;;;5133126;27;20370;-78
2023/12/14 06:00:36;;;;;;;18.17;2.85;;;9.30;99.90;;;;;;5133387;27;20062;-78
2023/12/14 06:03:02;;;;;;;10.32;2.38;;;9.30;99.90;;;;;;5133251;27;20063;-80
2023/12/14 06:05:28;;;;;;;11.30;2.60;;;9.30;99.90;;;;;;5133146;27;20019;-78
2023/12/14 06:07:54;;;;;;;10.57;2.70;;;9.30;99.90;;;;;;5132885;27;20034;-78
2023/12/14 06:10:19;;;;;;;11.30;2.72;;;9.20;99.90;;;;;;5113603;27;20027;-77
2023/12/14 06:12:45;;;;;;;9.27;2.40;;;9.20;99.90;;;;;;5114513;27;20374;-78
2023/12/14 06:15:11;;;;;;;12.65;3.13;;;9.10;99.90;;;;;;5132036;27;20066;-78
2023/12/14 06:17:39;;;;;;;12.35;2.60;;;9.10;99.90;;;;;;5114200;27;20128;-77
2023/12/14 06:20:08;;;;;;;12.10;2.97;;;9.00;99.90;;;;;;5131784;27;20027;-77
2023/12/14 06:22:36;;;;;;;14.35;3.33;;;8.90;99.90;;;;;;5132619;27;20352;-77
2023/12/14 06:25:03;;;;;;;15.68;3.45;;;8.80;99.90;;;;;;5131998;27;20035;-79
2023/12/14 06:27:28;;;;;;;21.13;5.38;;;8.70;99.90;;;;;;5113975;27;20023;-77
2023/12/14 06:29:54;;;;;;;17.17;4.30;;;8.70;99.90;;;;;;5132159;27;20027;-78
2023/12/14 06:32:20;;;;;;;22.38;3.80;;;8.60;99.90;;;;;;5131712;27;20110;-78
2023/12/14 06:34:46;;;;;;;15.82;4.13;;;8.60;99.90;;;;;;5097936;27;20022;-78
2023/12/14 06:37:11;;;;;;;12.82;4.30;;;8.50;99.90;;;;;;5131898;27;20027;-78
2023/12/14 06:39:37;;;;;;;22.45;5.07;;;8.40;99.90;;;;;;5132567;27;20027;-78
2023/12/14 06:42:03;;;;;;;11.20;3.92;;;8.40;99.90;;;;;;5132504;27;20023;-79
2023/12/14 06:44:30;;;;;;;15.65;4.15;;;8.30;99.90;;;;;;5132401;27;20019;-78
2023/12/14 06:46:58;;;;;;;18.02;4.28;;;8.20;99.90;;;;;;5113975;27;20533;-78
2023/12/14 06:49:23;;;;;;;17.42;4.38;;;8.20;99.90;;;;;;5131757;27;20121;-78
2023/12/14 06:51:49;;;;;;;21.20;4.70;;;8.10;99.90;;;;;;5132483;27;20106;-78
2023/12/14 06:54:15;;;;;;;15.55;4.05;;;8.10;99.90;;;;;;5131230;27;20026;-79
2023/12/14 06:56:41;;;;;;;17.38;4.45;;;8.10;99.90;;;;;;5131874;27;20031;-79
2023/12/14 06:59:06;;;;;;;16.20;3.95;;;8.00;99.90;;;;;;5131610;27;20418;-78
2023/12/14 07:01:32;;;;;;;18.75;4.57;;;8.00;99.90;;;;;;5132029;27;20038;-78
2023/12/14 07:03:58;;;;;;;20.83;4.85;;;7.90;99.90;;;;;;5113524;27;20138;-79
2023/12/14 07:06:23;;;;;;;29.20;5.03;;;7.80;99.90;;;;;;5131708;27;20037;-78
2023/12/14 07:08:49;;;;;;;18.02;4.40;;;7.80;99.90;;;;;;5131999;27;20024;-79
2023/12/14 07:11:15;;;;;;;20.15;4.78;;;7.80;99.90;;;;;;5132075;27;20501;-78
2023/12/14 07:13:41;;;;;;;20.02;5.30;;;7.80;99.90;;;;;;5131903;27;20031;-76
2023/12/14 07:16:08;;;;;;;23.77;5.50;;;7.70;99.90;;;;;;5131191;27;20072;-79
2023/12/14 07:18:35;;;;;;;34.60;6.85;;;7.70;99.90;;;;;;5131882;27;20102;-78
2023/12/14 07:21:04;;;;;;;26.25;5.47;;;7.60;99.90;;;;;;5131897;27;20129;-78
2023/12/14 07:23:30;;;;;;;24.48;4.78;;;7.60;99.90;;;;;;5131267;27;20107;-77
2023/12/14 07:25:56;;;;;;;22.88;5.65;;;7.60;99.90;;;;;;5131259;27;20050;-78
2023/12/14 07:28:22;;;;;;;26.50;6.65;;;7.60;99.90;;;;;;5131026;27;20085;-78
2023/12/14 07:30:48;;;;;;;23.52;5.40;;;7.50;99.90;;;;;;5131269;27;20031;-78
2023/12/14 07:33:14;;;;;;;28.98;5.38;;;7.50;99.90;;;;;;5130649;28;20034;-78
2023/12/14 07:35:40;;;;;;;29.70;5.05;;;7.60;99.90;;;;;;5131582;28;20407;-77
2023/12/14 07:38:06;;;;;;;27.83;5.25;;;7.50;99.90;;;;;;5130992;28;20027;-78
2023/12/14 07:40:32;;;;;;;38.25;7.20;;;7.60;99.90;;;;;;5130929;28;20053;-77
2023/12/14 07:42:57;;;;;;;36.03;6.10;;;7.40;99.90;;;;;;5131536;27;20028;-78
2023/12/14 07:45:23;;;;;;;28.45;5.93;;;7.40;99.90;;;;;;5135353;27;20403;-77
2023/12/14 07:47:49;;;;;;;29.55;6.25;;;7.50;99.90;;;;;;5135662;27;20031;-77
2023/12/14 07:50:15;;;;;;;42.05;8.32;;;7.40;99.90;;;;;;5134795;27;20031;-77
2023/12/14 07:52:40;;;;;;;37.15;7.28;;;7.40;99.90;;;;;;5135201;27;20074;-78
2023/12/14 07:55:07;;;;;;;41.58;7.00;;;7.30;99.90;;;;;;5099814;27;20034;-77
2023/12/14 07:57:33;;;;;;;37.63;6.18;;;7.40;99.90;;;;;;5134973;27;20102;-78
2023/12/14 07:59:58;;;;;;;41.38;6.50;;;7.30;99.90;;;;;;5135222;27;20135;-79
2023/12/14 08:02:24;;;;;;;33.00;6.13;;;7.30;99.90;;;;;;5135049;27;20467;-78
2023/12/14 08:04:50;;;;;;;31.30;6.15;;;7.40;99.90;;;;;;5135676;27;20488;-78
2023/12/14 08:07:16;;;;;;;36.38;6.15;;;7.30;99.90;;;;;;5135061;27;20023;-78
2023/12/14 08:09:41;;;;;;;34.58;7.60;;;7.30;99.90;;;;;;5135060;27;20023;-78
2023/12/14 08:12:07;;;;;;;37.88;7.45;;;7.30;99.90;;;;;;5135240;27;20047;-78
2023/12/14 08:14:38;;;;;;;38.03;6.90;;;7.20;99.90;;;;;;5134372;27;20372;-77
2023/12/14 08:17:04;;;;;;;44.75;6.22;;;7.20;99.90;;;;;;5135270;27;20035;-78
2023/12/14 08:19:30;;;;;;;44.72;6.68;;;7.20;99.90;;;;;;5134220;27;20877;-78
2023/12/14 08:21:56;;;;;;;45.35;7.25;;;7.30;99.90;;;;;;5134703;27;20106;-78
2023/12/14 08:24:22;;;;;;;40.70;7.53;;;7.30;99.90;;;;;;5134830;27;20027;-79
2023/12/14 08:26:47;;;;;;;43.35;7.88;;;7.30;99.90;;;;;;5134555;27;20058;-79
2023/12/14 08:29:13;;;;;;;37.67;7.55;;;7.30;99.90;;;;;;5133850;27;20038;-79
2023/12/14 08:31:39;;;;;;;38.90;6.50;;;7.40;99.90;;;;;;5135190;27;20545;-79
2023/12/14 08:34:04;;;;;;;41.90;6.80;;;7.50;99.90;;;;;;5116112;27;20039;-78
2023/12/14 08:36:31;;;;;;;42.72;7.68;;;7.40;99.90;;;;;;5134302;27;20501;-79
2023/12/14 08:38:57;;;;;;;36.63;6.60;;;7.50;99.90;;;;;;5134809;27;20126;-78
2023/12/14 08:41:23;;;;;;;40.85;6.90;;;7.50;99.90;;;;;;5133888;27;20143;-77
2023/12/14 08:43:48;;;;;;;41.40;5.72;;;7.50;99.90;;;;;;5134809;27;20352;-78
2023/12/14 08:46:14;;;;;;;37.35;6.68;;;7.60;99.90;;;;;;5134718;27;20023;-79
2023/12/14 08:48:40;;;;;;;36.15;6.60;;;7.60;99.90;;;;;;5134955;27;20359;-78
2023/12/14 08:51:06;;;;;;;47.97;6.85;;;7.60;99.90;;;;;;5135035;27;20023;-78
2023/12/14 08:53:32;;;;;;;37.30;6.38;;;7.70;99.90;;;;;;5134076;27;20038;-78
2023/12/14 08:55:57;;;;;;;38.50;7.32;;;7.70;99.90;;;;;;5134360;27;20034;-80
2023/12/14 08:58:23;;;;;;;36.67;5.85;;;7.70;99.90;;;;;;5133475;27;20026;-79
2023/12/14 09:00:52;;;;;;;40.10;6.93;;;7.70;99.90;;;;;;5134600;27;20041;-78
2023/12/14 09:03:21;;;;;;;46.28;6.85;;;7.80;99.90;;;;;;5134381;27;20042;-78
2023/12/14 09:05:47;;;;;;;31.05;6.15;;;7.80;99.90;;;;;;5134389;27;20053;-78
2023/12/14 09:08:13;;;;;;;38.75;5.43;;;7.90;99.90;;;;;;5133957;27;20368;-79
2023/12/14 09:10:39;;;;;;;38.13;6.20;;;7.90;99.90;;;;;;5134142;27;20027;-79
2023/12/14 09:13:05;;;;;;;32.30;6.18;;;7.90;99.90;;;;;;5134180;27;20141;-77
2023/12/14 09:15:34;;;;;;;28.25;5.07;;;7.90;99.90;;;;;;5134128;27;20552;-77
2023/12/14 09:18:00;;;;;;;35.08;6.20;;;7.90;99.90;;;;;;5115941;27;20019;-78
2023/12/14 09:20:26;;;;;;;33.50;5.95;;;7.90;99.90;;;;;;5133634;27;20027;-79
2023/12/14 09:22:52;;;;;;;32.15;6.75;;;7.90;99.90;;;;;;5133833;27;20057;-76
2023/12/14 09:25:19;;;;;;;26.08;6.25;;;7.90;99.90;;;;;;5114947;27;20054;-78
2023/12/14 09:27:44;;;;;;;32.88;5.38;;;8.00;99.90;;;;;;5134076;27;20034;-78
2023/12/14 09:30:11;;;;;;;32.65;5.85;;;8.00;99.90;;;;;;5133553;27;20027;-77
2023/12/14 09:32:36;;;;;;;33.63;5.70;;;8.00;99.90;;;;;;5133229;27;20111;-77
2023/12/14 09:35:02;;;;;;;35.63;6.05;;;8.00;99.90;;;;;;5134251;27;20079;-77
2023/12/14 09:37:28;;;;;;;30.38;5.95;;;8.00;99.90;;;;;;5133394;27;20456;-77
2023/12/14 09:39:54;;;;;;;22.10;5.10;;;8.10;99.90;;;;;;5134178;27;20031;-77
2023/12/14 09:42:21;;;;;;;32.13;6.10;;;8.10;99.90;;;;;;5114794;27;20035;-77
2023/12/14 09:44:50;;;;;;;30.42;5.30;;;8.10;99.90;;;;;;5133758;27;20088;-77
2023/12/14 09:47:16;;;;;;;28.23;5.75;;;8.10;99.90;;;;;;5114887;27;20023;-79
2023/12/14 09:49:45;;;;;;;19.40;4.38;;;8.10;99.90;;;;;;5133982;27;20034;-78
2023/12/14 09:52:11;;;;;;;28.83;5.38;;;8.20;99.90;;;;;;5133917;27;20042;-78
2023/12/14 09:54:37;;;;;;;34.92;5.63;;;8.20;99.90;;;;;;5114815;27;20027;-78
2023/12/14 09:57:03;;;;;;;25.67;5.57;;;8.20;99.90;;;;;;5133825;27;20494;-78
2023/12/14 09:59:29;;;;;;;26.90;5.63;;;8.20;99.90;;;;;;5133119;27;20039;-78
2023/12/14 10:02:12;;;;;;;28.67;5.68;;;8.20;99.90;;;;;;5133580;27;20059;-78
2023/12/14 10:04:38;;;;;;;30.20;5.95;;;8.20;99.90;;;;;;5133398;27;20019;-79
2023/12/14 10:07:06;;;;;;;29.25;5.90;;;8.30;99.90;;;;;;5114308;27;20077;-78
2023/12/14 10:09:33;;;;;;;29.50;5.45;;;8.30;99.90;;;;;;5133409;27;20087;-79
2023/12/14 10:12:07;;;;;;;25.85;6.25;;;8.30;99.90;;;;;;5133308;27;20499;-77
2023/12/14 10:14:34;;;;;;;24.40;5.22;;;8.30;99.90;;;;;;5133209;27;20031;-79
2023/12/14 10:17:13;;;;;;;29.40;5.18;;;8.40;99.90;;;;;;5124157;27;20031;-78
2023/12/14 10:19:43;;;;;;;26.13;5.47;;;8.40;99.90;;;;;;5112402;28;20028;-79
2023/12/14 10:22:09;;;;;;;26.75;6.20;;;8.50;99.90;;;;;;5112820;28;20027;-79
2023/12/14 10:24:35;;;;;;;27.63;5.53;;;8.50;99.90;;;;;;5112350;28;20046;-79
2023/12/14 10:27:07;;;;;;;29.88;5.88;;;8.50;99.90;;;;;;5112891;28;20046;-79
2023/12/14 10:29:39;;;;;;;23.85;5.95;;;8.50;99.90;;;;;;5093551;28;20030;-78
2023/12/14 10:32:06;;;;;;;26.42;5.53;;;8.50;99.90;;;;;;5112274;28;20031;-78
2023/12/14 10:34:36;;;;;;;21.13;5.10;;;8.60;99.90;;;;;;5112471;28;20039;-78
2023/12/14 10:37:04;;;;;;;28.63;5.90;;;8.60;99.90;;;;;;5113354;28;20039;-78
2023/12/14 10:39:31;;;;;;;25.90;5.13;;;8.60;99.90;;;;;;5112590;28;20035;-80
2023/12/14 10:41:58;;;;;;;32.78;6.20;;;8.70;99.90;;;;;;5094985;28;20064;-79
2023/12/14 10:44:27;;;;;;;33.95;5.75;;;8.60;99.90;;;;;;5111888;28;20019;-80
2023/12/14 10:46:56;;;;;;;28.77;5.75;;;8.70;99.90;;;;;;5112213;28;20055;-79
2023/12/14 10:49:26;;;;;;;29.23;5.60;;;8.70;99.90;;;;;;5111061;28;20461;-79
2023/12/14 10:51:55;;;;;;;28.77;5.28;;;8.70;99.90;;;;;;5112257;28;20027;-78
2023/12/14 10:54:22;;;;;;;23.08;5.80;;;8.70;99.90;;;;;;5111423;28;20336;-80
2023/12/14 10:56:48;;;;;;;29.73;6.10;;;8.70;99.90;;;;;;5111517;28;20027;-79
2023/12/14 10:59:18;;;;;;;22.27;5.00;;;8.70;99.90;;;;;;5111279;28;20055;-79
2023/12/14 11:01:44;;;;;;;26.75;6.60;;;8.70;99.90;;;;;;5110649;28;20019;-79
2023/12/14 11:04:14;;;;;;;31.42;6.07;;;8.70;99.90;;;;;;5111790;28;20081;-80
2023/12/14 11:06:42;;;;;;;26.38;6.25;;;8.80;99.90;;;;;;5092895;28;20590;-79
2023/12/14 11:09:10;;;;;;;22.77;5.32;;;8.80;99.90;;;;;;5111031;28;20024;-79
2023/12/14 11:11:45;;;;;;;25.63;6.20;;;8.80;99.90;;;;;;5110880;28;20202;-79
2023/12/14 11:14:18;;;;;;;24.40;5.20;;;8.80;99.90;;;;;;5111287;28;20080;-79
2023/12/14 11:16:46;;;;;;;;;;;8.90;99.90;;;;;;5111700;28;20453;-79
2023/12/14 11:19:21;;;;;;;24.42;5.40;;;8.90;99.90;;;;;;5111867;28;19926;-78
2023/12/14 11:21:53;;;;;;;23.40;5.35;;;8.90;99.90;;;;;;5092871;28;20486;-79
2023/12/14 11:24:19;;;;;;;23.80;5.63;;;8.90;99.90;;;;;;5111051;28;20093;-79
2023/12/14 11:26:44;;;;;;;28.45;4.68;;;8.90;99.90;;;;;;5092535;28;20464;-79
2023/12/14 11:29:11;;;;;;;24.88;5.70;;;9.00;99.90;;;;;;5110762;28;20061;-78
2023/12/14 11:31:37;;;;;;;24.08;5.03;;;9.10;99.90;;;;;;5110818;28;20023;-78
2023/12/14 11:34:06;;;;;;;21.85;4.65;;;9.10;99.90;;;;;;5111300;28;20448;-78
2023/12/14 11:36:31;;;;;;;25.75;5.28;;;9.10;99.90;;;;;;5092351;28;20027;-79
2023/12/14 11:38:57;;;;;;;23.58;5.40;;;9.20;99.90;;;;;;5111188;28;20460;-79
2023/12/14 11:41:25;;;;;;;22.55;4.68;;;9.20;99.90;;;;;;5110703;28;20035;-81
2023/12/14 11:43:51;;;;;;;26.35;5.22;;;9.30;99.90;;;;;;5111358;28;20182;-79
2023/12/14 11:46:17;;;;;;;25.83;5.35;;;9.30;99.90;;;;;;5111364;28;20016;-79
2023/12/14 11:48:48;;;;;;;27.48;5.13;;;9.30;99.90;;;;;;5110413;28;20094;-79
2023/12/14 11:51:15;;;;;;;21.92;5.03;;;9.30;99.90;;;;;;5110976;28;20063;-79
2023/12/14 11:53:48;;;;;;;19.00;4.93;;;9.30;99.90;;;;;;5110668;28;20052;-80
2023/12/14 11:56:17;;;;;;;24.13;4.90;;;9.40;99.90;;;;;;5111270;28;20100;-79
2023/12/14 11:58:45;;;;;;;30.38;6.25;;;9.40;99.90;;;;;;5110351;28;20095;-79
2023/12/14 12:01:21;;;;;;;23.77;5.72;;;9.40;99.90;;;;;;5092719;28;20076;-79
2023/12/14 12:03:47;;;;;;;26.27;4.90;;;9.40;99.90;;;;;;5110975;28;20028;-80
2023/12/14 12:06:30;;;;;;;30.45;6.22;;;9.40;99.90;;;;;;5093488;28;20130;-80
2023/12/14 12:08:56;;;;;;;25.08;5.85;;;9.30;99.90;;;;;;5110494;28;20028;-78
2023/12/14 12:11:25;;;;;;;27.77;5.80;;;9.30;99.90;;;;;;5111623;28;20081;-78
2023/12/14 12:13:52;;;;;;;26.58;6.00;;;9.30;99.90;;;;;;5111070;28;20024;-78
2023/12/14 12:16:17;;;;;;;24.27;5.78;;;9.30;99.90;;;;;;5111142;28;20470;-78
2023/12/14 12:18:43;;;;;;;25.77;5.32;;;9.30;99.90;;;;;;5110185;28;20028;-79
2023/12/14 12:21:10;;;;;;;24.10;5.38;;;9.30;99.90;;;;;;5110250;28;20020;-77
2023/12/14 12:23:36;;;;;;;27.60;5.85;;;9.30;99.90;;;;;;5110335;28;20023;-78
2023/12/14 12:26:02;;;;;;;23.95;5.40;;;9.20;99.90;;;;;;5110745;28;20027;-77
2023/12/14 12:28:30;;;;;;;23.38;6.00;;;9.30;99.90;;;;;;5110379;28;20031;-78
2023/12/14 12:30:55;;;;;;;26.88;5.90;;;9.30;99.90;;;;;;5113803;28;20118;-78
2023/12/14 12:33:21;;;;;;;29.50;6.13;;;9.30;99.90;;;;;;5114712;28;20432;-78
2023/12/14 12:35:47;;;;;;;24.98;6.30;;;9.30;99.90;;;;;;5114208;28;20028;-79
2023/12/14 12:38:14;;;;;;;29.80;6.43;;;9.40;99.90;;;;;;5114320;28;20080;-78
2023/12/14 12:40:39;;;;;;;21.20;5.22;;;9.40;99.90;;;;;;5113494;28;20020;-79
2023/12/14 12:43:05;;;;;;;27.67;5.57;;;9.40;99.90;;;;;;5113934;28;20039;-79
2023/12/14 12:45:32;;;;;;;28.88;5.88;;;9.40;99.90;;;;;;5095079;28;20040;-78